Gaiac — FAA2693 — position and weather

sailwx.info

Track history (hours):
 
Tides and Currents Weather Stations Pressure Air Temp Water Temp Dewpoint Dewpoint Depression Visibility Wind Speed Wind Dir Waves Ship Positions

Gaiac

Last reported at 2018-Jan-20 20:59 UTC. Time now 2018-Jan-24 11:20 UTC.
Position S 22°16' E 166°25'.

Length 24 m; draft 5 m.

Type: Tug. MMSI: 540007250.

Date/timePositionNaut miles runAvg speedWind from/ knotsBaromVisibWave heightAir tempDewpointWater temp
2018-Jan-20 20:59S 22°16' E 166°25'1 2.6
2018-Jan-20 20:30S 22°17' E 166°24'2 3.3
2018-Jan-20 20:01S 22°16' E 166°26'1 0.0
2018-Jan-19 19:55S 22°16' E 166°26'0 1.0
2018-Jan-19 19:30S 22°15' E 166°26'1 1.2
2018-Jan-19 19:00S 22°16' E 166°25'2 0.2
2018-Jan-19 08:59S 22°14' E 166°24'2 3.9
2018-Jan-19 08:30S 22°16' E 166°25'0 0.0
2018-Jan-19 08:00S 22°16' E 166°25'0 0.0
2018-Jan-19 07:30S 22°16' E 166°25'0 0.0
2018-Jan-19 07:00S 22°16' E 166°25'1 1.7
2018-Jan-19 06:30S 22°16' E 166°26'0 0.2
2018-Jan-19 06:00S 22°16' E 166°26'1 1.7
2018-Jan-19 05:30S 22°16' E 166°25'0 0.0
2018-Jan-19 03:30S 22°16' E 166°25'0 0.0
2018-Jan-19 02:50S 22°16' E 166°25'0 0.0
2018-Jan-19 02:30S 22°16' E 166°25'0 0.0
2018-Jan-19 02:00S 22°16' E 166°25'0 0.0
2018-Jan-19 01:30S 22°16' E 166°25'0 0.0
2018-Jan-19 01:00S 22°16' E 166°25'0 0.0
2018-Jan-19 00:30S 22°16' E 166°25'0 0.0
2018-Jan-19 00:00S 22°16' E 166°25'0 0.0
2018-Jan-18 23:30S 22°16' E 166°25'2 3.8
2018-Jan-18 23:01S 22°14' E 166°24'0 0.1
2018-Jan-18 22:30S 22°14' E 166°24'0 0.1
2018-Jan-18 22:00S 22°14' E 166°24'1 1.3
2018-Jan-18 21:31S 22°15' E 166°24'1 3.0
2018-Jan-18 21:00S 22°16' E 166°26'0 0.1
2018-Jan-18 20:30S 22°16' E 166°26'1 1.3
2018-Jan-18 20:00S 22°16' E 166°25'0 0.0
2018-Jan-18 19:30S 22°16' E 166°25'1 1.8
2018-Jan-18 19:00S 22°16' E 166°26'1 1.9
2018-Jan-18 18:30S 22°16' E 166°25'1 2.0
2018-Jan-18 18:00S 22°16' E 166°26'1 0.1
2018-Jan-18 07:45S 22°16' E 166°25'1 2.3
2018-Jan-18 07:30S 22°15' E 166°26'0 0.7
2018-Jan-18 06:59S 22°16' E 166°26'1 1.4
2018-Jan-18 06:30S 22°16' E 166°25'0 0.0
2018-Jan-18 06:00S 22°16' E 166°25'0 0.0
2018-Jan-18 05:30S 22°16' E 166°25'0 0.0
2018-Jan-18 05:00S 22°16' E 166°25'0 0.0
2018-Jan-18 04:30S 22°16' E 166°25'0 0.0
2018-Jan-18 04:00S 22°16' E 166°25'0 0.0
2018-Jan-18 03:30S 22°16' E 166°25'0 0.0
2018-Jan-18 03:00S 22°16' E 166°25'0 0.0
2018-Jan-18 02:30S 22°16' E 166°25'0 0.0
2018-Jan-18 02:00S 22°16' E 166°25'0 0.0
2018-Jan-18 01:30S 22°16' E 166°25'0 0.0
2018-Jan-18 01:00S 22°16' E 166°25'0 0.0
2018-Jan-18 00:00S 22°16' E 166°25'0 0.0
2018-Jan-17 23:58S 22°16' E 166°25'  
2018-Jan-11 23:41S 22°16' E 166°25'0 2.6
2018-Jan-11 23:30S 22°16' E 166°26'0 0.8
2018-Jan-11 23:01S 22°16' E 166°26'1 1.7
2018-Jan-11 22:30S 22°16' E 166°25'0 0.0
2018-Jan-11 22:00S 22°16' E 166°25'0 0.6
2018-Jan-11 21:29S 22°16' E 166°25'1 2.9
2018-Jan-11 20:59S 22°17' E 166°26'1 1.9
2018-Jan-11 20:31S 22°16' E 166°26'1 2.1
2018-Jan-11 20:01S 22°17' E 166°26'1 1.1
2018-Jan-11 19:30S 22°17' E 166°25'3 6.1
2018-Jan-11 19:01S 22°15' E 166°24'3 0.2
2018-Jan-11 01:35S 22°17' E 166°26'0 4.7
2018-Jan-11 01:30S 22°17' E 166°26'0 0.7
2018-Jan-11 01:00S 22°17' E 166°26'3 5.2
2018-Jan-11 00:30S 22°15' E 166°24'2 3.9
2018-Jan-11 00:01S 22°16' E 166°26'1 1.6
2018-Jan-10 23:30S 22°16' E 166°25'0 0.0
2018-Jan-10 23:00S 22°16' E 166°25'0 0.0
2018-Jan-10 22:30S 22°16' E 166°25'0 0.0
2018-Jan-10 22:00S 22°16' E 166°25'  
Track history (hours):
 
Tides and Currents Weather Stations Pressure Air Temp Water Temp Dewpoint Dewpoint Depression Visibility Wind Speed Wind Dir Waves Ship Positions

Gaiac

Last reported at 2018-Jan-20 20:59 UTC. Time now 2018-Jan-24 11:20 UTC.
Position S 22°16' E 166°25'.

Length 24 m; draft 5 m.

Type: Tug. MMSI: 540007250.

Date/timePositionNaut miles runAvg speedWind from/ knotsBaromVisibWave heightAir tempDewpointWater temp
2018-Jan-20 20:59S 22°16' E 166°25'1 2.6
2018-Jan-20 20:30S 22°17' E 166°24'2 3.3
2018-Jan-20 20:01S 22°16' E 166°26'1 0.0
2018-Jan-19 19:55S 22°16' E 166°26'0 1.0
2018-Jan-19 19:30S 22°15' E 166°26'1 1.2
2018-Jan-19 19:00S 22°16' E 166°25'2 0.2
2018-Jan-19 08:59S 22°14' E 166°24'2 3.9
2018-Jan-19 08:30S 22°16' E 166°25'0 0.0
2018-Jan-19 08:00S 22°16' E 166°25'0 0.0
2018-Jan-19 07:30S 22°16' E 166°25'0 0.0
2018-Jan-19 07:00S 22°16' E 166°25'1 1.7
2018-Jan-19 06:30S 22°16' E 166°26'0 0.2
2018-Jan-19 06:00S 22°16' E 166°26'1 1.7
2018-Jan-19 05:30S 22°16' E 166°25'0 0.0
2018-Jan-19 03:30S 22°16' E 166°25'0 0.0
2018-Jan-19 02:50S 22°16' E 166°25'0 0.0
2018-Jan-19 02:30S 22°16' E 166°25'0 0.0
2018-Jan-19 02:00S 22°16' E 166°25'0 0.0
2018-Jan-19 01:30S 22°16' E 166°25'0 0.0
2018-Jan-19 01:00S 22°16' E 166°25'0 0.0
2018-Jan-19 00:30S 22°16' E 166°25'0 0.0
2018-Jan-19 00:00S 22°16' E 166°25'0 0.0
2018-Jan-18 23:30S 22°16' E 166°25'2 3.8
2018-Jan-18 23:01S 22°14' E 166°24'0 0.1
2018-Jan-18 22:30S 22°14' E 166°24'0 0.1
2018-Jan-18 22:00S 22°14' E 166°24'1 1.3
2018-Jan-18 21:31S 22°15' E 166°24'1 3.0
2018-Jan-18 21:00S 22°16' E 166°26'0 0.1
2018-Jan-18 20:30S 22°16' E 166°26'1 1.3
2018-Jan-18 20:00S 22°16' E 166°25'0 0.0
2018-Jan-18 19:30S 22°16' E 166°25'1 1.8
2018-Jan-18 19:00S 22°16' E 166°26'1 1.9
2018-Jan-18 18:30S 22°16' E 166°25'1 2.0
2018-Jan-18 18:00S 22°16' E 166°26'1 0.1
2018-Jan-18 07:45S 22°16' E 166°25'1 2.3
2018-Jan-18 07:30S 22°15' E 166°26'0 0.7
2018-Jan-18 06:59S 22°16' E 166°26'1 1.4
2018-Jan-18 06:30S 22°16' E 166°25'0 0.0
2018-Jan-18 06:00S 22°16' E 166°25'0 0.0
2018-Jan-18 05:30S 22°16' E 166°25'0 0.0
2018-Jan-18 05:00S 22°16' E 166°25'0 0.0
2018-Jan-18 04:30S 22°16' E 166°25'0 0.0
2018-Jan-18 04:00S 22°16' E 166°25'0 0.0
2018-Jan-18 03:30S 22°16' E 166°25'0 0.0
2018-Jan-18 03:00S 22°16' E 166°25'0 0.0
2018-Jan-18 02:30S 22°16' E 166°25'0 0.0
2018-Jan-18 02:00S 22°16' E 166°25'0 0.0
2018-Jan-18 01:30S 22°16' E 166°25'0 0.0
2018-Jan-18 01:00S 22°16' E 166°25'0 0.0
2018-Jan-18 00:00S 22°16' E 166°25'0 0.0
2018-Jan-17 23:58S 22°16' E 166°25'  
2018-Jan-11 23:41S 22°16' E 166°25'0 2.6
2018-Jan-11 23:30S 22°16' E 166°26'0 0.8
2018-Jan-11 23:01S 22°16' E 166°26'1 1.7
2018-Jan-11 22:30S 22°16' E 166°25'0 0.0
2018-Jan-11 22:00S 22°16' E 166°25'0 0.6
2018-Jan-11 21:29S 22°16' E 166°25'1 2.9
2018-Jan-11 20:59S 22°17' E 166°26'1 1.9
2018-Jan-11 20:31S 22°16' E 166°26'1 2.1
2018-Jan-11 20:01S 22°17' E 166°26'1 1.1
2018-Jan-11 19:30S 22°17' E 166°25'3 6.1
2018-Jan-11 19:01S 22°15' E 166°24'3 0.2
2018-Jan-11 01:35S 22°17' E 166°26'0 4.7
2018-Jan-11 01:30S 22°17' E 166°26'0 0.7
2018-Jan-11 01:00S 22°17' E 166°26'3 5.2
2018-Jan-11 00:30S 22°15' E 166°24'2 3.9
2018-Jan-11 00:01S 22°16' E 166°26'1 1.6
2018-Jan-10 23:30S 22°16' E 166°25'0 0.0
2018-Jan-10 23:00S 22°16' E 166°25'0 0.0
2018-Jan-10 22:30S 22°16' E 166°25'0 0.0
2018-Jan-10 22:00S 22°16' E 166°25'  

Dump ship's entire track history